sensor_id;sensor_type;location;lat;lon;timestamp;pressure;altitude;pressure_sealevel;temperature;humidity
6680;BME280;3376;42.664;23.346;2023-04-29T00:01:31;94471.63;;;6.89;81.85
6680;BME280;3376;42.664;23.346;2023-04-29T00:03:58;94590.75;;;7.66;78.87
6680;BME280;3376;42.664;23.346;2023-04-29T00:06:25;94594.97;;;7.75;75.82
6680;BME280;3376;42.664;23.346;2023-04-29T00:08:52;94594.47;;;7.64;74.32
6680;BME280;3376;42.664;23.346;2023-04-29T00:11:19;94595.13;;;7.66;76.41
6680;BME280;3376;42.664;23.346;2023-04-29T00:13:45;94600.44;;;7.72;76.19
6680;BME280;3376;42.664;23.346;2023-04-29T00:16:12;94587.56;;;7.72;76.15
6680;BME280;3376;42.664;23.346;2023-04-29T00:18:40;94606.91;;;7.76;74.89
6680;BME280;3376;42.664;23.346;2023-04-29T00:21:07;94600.63;;;7.79;76.17
6680;BME280;3376;42.664;23.346;2023-04-29T00:23:34;94603.19;;;7.71;77.84
6680;BME280;3376;42.664;23.346;2023-04-29T00:26:01;94599.44;;;7.65;80.70
6680;BME280;3376;42.664;23.346;2023-04-29T00:28:27;94544.19;;;7.18;82.59
6680;BME280;3376;42.664;23.346;2023-04-29T00:30:54;94606.81;;;7.52;83.35
6680;BME280;3376;42.664;23.346;2023-04-29T00:33:21;94592.84;;;7.29;84.87
6680;BME280;3376;42.664;23.346;2023-04-29T00:35:49;94607.84;;;7.34;83.64
6680;BME280;3376;42.664;23.346;2023-04-29T00:38:16;94604.34;;;7.43;83.17
6680;BME280;3376;42.664;23.346;2023-04-29T00:40:43;94605.16;;;7.43;83.59
6680;BME280;3376;42.664;23.346;2023-04-29T00:43:10;94612.91;;;7.43;83.90
6680;BME280;3376;42.664;23.346;2023-04-29T00:45:37;94591.84;;;7.22;81.80
6680;BME280;3376;42.664;23.346;2023-04-29T00:48:04;94601.75;;;7.35;81.13
6680;BME280;3376;42.664;23.346;2023-04-29T00:50:30;94596.59;;;7.35;81.74
6680;BME280;3376;42.664;23.346;2023-04-29T00:52:59;94599.66;;;7.38;84.90
6680;BME280;3376;42.664;23.346;2023-04-29T00:55:27;94600.94;;;7.34;84.34
6680;BME280;3376;42.664;23.346;2023-04-29T00:57:54;94578.78;;;7.15;84.98
6680;BME280;3376;42.664;23.346;2023-04-29T01:00:21;94574.97;;;7.28;84.39
6680;BME280;3376;42.664;23.346;2023-04-29T01:02:49;94528.41;;;6.87;85.05
6680;BME280;3376;42.664;23.346;2023-04-29T01:05:16;94573.78;;;7.14;85.89
6680;BME280;3376;42.664;23.346;2023-04-29T01:07:50;94568.88;;;7.03;87.13
6680;BME280;3376;42.664;23.346;2023-04-29T01:10:26;94566.94;;;6.97;88.09
6680;BME280;3376;42.664;23.346;2023-04-29T01:12:59;94538.47;;;6.73;88.97
6680;BME280;3376;42.664;23.346;2023-04-29T01:15:32;94565.09;;;6.89;89.53
6680;BME280;3376;42.664;23.346;2023-04-29T01:18:04;94544.88;;;6.69;89.85
6680;BME280;3376;42.664;23.346;2023-04-29T01:20:34;94564.09;;;6.82;89.93
6680;BME280;3376;42.664;23.346;2023-04-29T01:23:02;94562.13;;;6.76;90.95
6680;BME280;3376;42.664;23.346;2023-04-29T01:25:30;94548.84;;;6.63;90.75
6680;BME280;3376;42.664;23.346;2023-04-29T01:28:04;94557.69;;;6.61;91.47
6680;BME280;3376;42.664;23.346;2023-04-29T01:30:41;94548.75;;;6.47;92.42
6680;BME280;3376;42.664;23.346;2023-04-29T01:33:16;94557.66;;;6.53;92.83
6680;BME280;3376;42.664;23.346;2023-04-29T01:35:52;94563.44;;;6.55;92.11
6680;BME280;3376;42.664;23.346;2023-04-29T01:38:29;94559.72;;;6.49;93.37
6680;BME280;3376;42.664;23.346;2023-04-29T01:41:09;94565.00;;;6.48;92.86
6680;BME280;3376;42.664;23.346;2023-04-29T01:43:36;94421.25;;;5.58;92.99
6680;BME280;3376;42.664;23.346;2023-04-29T01:46:05;94555.81;;;6.45;93.41
6680;BME280;3376;42.664;23.346;2023-04-29T01:48:31;94533.69;;;6.35;93.25
6680;BME280;3376;42.664;23.346;2023-04-29T01:50:58;94553.97;;;6.38;93.02
6680;BME280;3376;42.664;23.346;2023-04-29T01:53:25;94534.31;;;6.29;92.75
6680;BME280;3376;42.664;23.346;2023-04-29T01:55:52;94529.91;;;6.21;94.12
6680;BME280;3376;42.664;23.346;2023-04-29T01:58:20;94560.09;;;6.37;93.92
6680;BME280;3376;42.664;23.346;2023-04-29T02:00:47;94547.22;;;6.37;93.72
6680;BME280;3376;42.664;23.346;2023-04-29T02:03:14;94560.38;;;6.34;93.24
6680;BME280;3376;42.664;23.346;2023-04-29T02:05:41;94545.25;;;6.31;95.47
6680;BME280;3376;42.664;23.346;2023-04-29T02:08:08;94556.50;;;6.30;96.72
6680;BME280;3376;42.664;23.346;2023-04-29T02:10:35;94551.19;;;6.14;95.68
6680;BME280;3376;42.664;23.346;2023-04-29T02:13:02;94559.22;;;6.11;95.94
6680;BME280;3376;42.664;23.346;2023-04-29T02:15:30;94567.59;;;6.13;96.68
6680;BME280;3376;42.664;23.346;2023-04-29T02:17:56;94564.81;;;6.06;96.31
6680;BME280;3376;42.664;23.346;2023-04-29T02:20:23;94567.25;;;6.08;96.01
6680;BME280;3376;42.664;23.346;2023-04-29T02:22:50;94559.88;;;5.95;97.54
6680;BME280;3376;42.664;23.346;2023-04-29T02:25:17;94567.91;;;5.92;96.41
6680;BME280;3376;42.664;23.346;2023-04-29T02:27:43;94555.19;;;5.90;96.74
6680;BME280;3376;42.664;23.346;2023-04-29T02:30:11;94541.66;;;5.88;97.41
6680;BME280;3376;42.664;23.346;2023-04-29T02:32:39;94502.75;;;5.83;96.75
6680;BME280;3376;42.664;23.346;2023-04-29T02:35:06;94562.81;;;6.18;97.26
6680;BME280;3376;42.664;23.346;2023-04-29T02:37:33;94553.50;;;5.99;97.24
6680;BME280;3376;42.664;23.346;2023-04-29T02:40:00;94556.78;;;5.91;98.51
6680;BME280;3376;42.664;23.346;2023-04-29T02:42:27;94542.81;;;5.76;98.34
6680;BME280;3376;42.664;23.346;2023-04-29T02:44:54;94553.84;;;5.86;98.12
6680;BME280;3376;42.664;23.346;2023-04-29T02:47:21;94559.16;;;5.85;98.36
6680;BME280;3376;42.664;23.346;2023-04-29T02:49:49;94560.25;;;5.82;98.87
6680;BME280;3376;42.664;23.346;2023-04-29T02:52:16;94559.97;;;5.85;99.03
6680;BME280;3376;42.664;23.346;2023-04-29T02:54:43;94574.16;;;5.89;98.41
6680;BME280;3376;42.664;23.346;2023-04-29T02:57:10;94570.78;;;5.79;99.35
6680;BME280;3376;42.664;23.346;2023-04-29T02:59:37;94573.44;;;5.70;99.72
6680;BME280;3376;42.664;23.346;2023-04-29T03:02:03;94585.97;;;5.73;99.30
6680;BME280;3376;42.664;23.346;2023-04-29T03:04:30;94590.97;;;5.74;99.98
6680;BME280;3376;42.664;23.346;2023-04-29T03:06:58;94580.31;;;5.69;99.44
6680;BME280;3376;42.664;23.346;2023-04-29T03:09:25;94582.38;;;5.66;100.00
6680;BME280;3376;42.664;23.346;2023-04-29T03:11:52;94578.91;;;5.57;100.00
6680;BME280;3376;42.664;23.346;2023-04-29T03:14:19;94580.69;;;5.57;100.00
6680;BME280;3376;42.664;23.346;2023-04-29T03:16:45;94549.53;;;5.42;100.00
6680;BME280;3376;42.664;23.346;2023-04-29T03:19:12;94556.88;;;5.55;100.00
6680;BME280;3376;42.664;23.346;2023-04-29T03:21:39;94565.50;;;5.63;99.59
6680;BME280;3376;42.664;23.346;2023-04-29T03:24:07;94584.44;;;5.80;99.86
6680;BME280;3376;42.664;23.346;2023-04-29T03:26:34;94577.47;;;5.72;99.94
6680;BME280;3376;42.664;23.346;2023-04-29T03:29:01;94595.97;;;5.76;99.40
6680;BME280;3376;42.664;23.346;2023-04-29T03:31:27;94595.16;;;5.75;99.17
6680;BME280;3376;42.664;23.346;2023-04-29T03:33:54;94606.53;;;5.73;99.22
6680;BME280;3376;42.664;23.346;2023-04-29T03:36:21;94607.88;;;5.77;99.18
6680;BME280;3376;42.664;23.346;2023-04-29T03:38:48;94601.03;;;5.68;99.80
6680;BME280;3376;42.664;23.346;2023-04-29T03:41:16;94610.09;;;5.62;100.00
6680;BME280;3376;42.664;23.346;2023-04-29T03:43:43;94614.31;;;5.63;100.00
6680;BME280;3376;42.664;23.346;2023-04-29T03:46:10;94625.91;;;5.67;100.00
6680;BME280;3376;42.664;23.346;2023-04-29T03:48:37;94618.94;;;5.60;99.99
6680;BME280;3376;42.664;23.346;2023-04-29T03:51:03;94586.84;;;5.37;100.00
6680;BME280;3376;42.664;23.346;2023-04-29T03:53:30;94609.72;;;5.57;100.00
6680;BME280;3376;42.664;23.346;2023-04-29T03:55:57;94611.81;;;5.71;100.00
6680;BME280;3376;42.664;23.346;2023-04-29T03:58:25;94608.16;;;5.74;100.00
6680;BME280;3376;42.664;23.346;2023-04-29T04:00:52;94601.25;;;5.84;100.00
6680;BME280;3376;42.664;23.346;2023-04-29T04:03:20;94569.28;;;5.86;99.29
6680;BME280;3376;42.664;23.346;2023-04-29T04:05:48;94595.88;;;6.13;99.27
6680;BME280;3376;42.664;23.346;2023-04-29T04:08:15;94604.03;;;6.26;98.44
6680;BME280;3376;42.664;23.346;2023-04-29T04:10:42;94599.03;;;6.24;98.61
6680;BME280;3376;42.664;23.346;2023-04-29T04:13:09;94617.66;;;6.36;99.54
6680;BME280;3376;42.664;23.346;2023-04-29T04:15:37;94615.59;;;6.39;100.00
6680;BME280;3376;42.664;23.346;2023-04-29T04:18:03;94471.81;;;5.58;100.00
6680;BME280;3376;42.664;23.346;2023-04-29T04:20:30;94606.09;;;6.57;99.73
6680;BME280;3376;42.664;23.346;2023-04-29T04:22:57;94608.94;;;6.72;98.39
6680;BME280;3376;42.664;23.346;2023-04-29T04:25:24;94610.44;;;6.82;97.54
6680;BME280;3376;42.664;23.346;2023-04-29T04:27:50;94597.41;;;6.84;96.93
6680;BME280;3376;42.664;23.346;2023-04-29T04:30:18;94601.66;;;6.93;97.38
6680;BME280;3376;42.664;23.346;2023-04-29T04:32:46;94610.16;;;7.11;96.04
6680;BME280;3376;42.664;23.346;2023-04-29T04:35:14;94580.50;;;7.07;94.41
6680;BME280;3376;42.664;23.346;2023-04-29T04:37:40;94610.88;;;7.29;95.18
6680;BME280;3376;42.664;23.346;2023-04-29T04:40:08;94596.44;;;7.36;94.60
6680;BME280;3376;42.664;23.346;2023-04-29T04:42:36;94603.44;;;7.52;94.25
6680;BME280;3376;42.664;23.346;2023-04-29T04:45:04;94615.28;;;7.78;92.27
6680;BME280;3376;42.664;23.346;2023-04-29T04:47:30;94610.50;;;7.91;92.07
6680;BME280;3376;42.664;23.346;2023-04-29T04:49:59;94613.75;;;8.01;92.98
6680;BME280;3376;42.664;23.346;2023-04-29T04:52:25;94626.31;;;8.12;93.02
6680;BME280;3376;42.664;23.346;2023-04-29T04:54:52;94620.28;;;8.29;91.10
6680;BME280;3376;42.664;23.346;2023-04-29T04:57:19;94618.53;;;8.46;90.23
6680;BME280;3376;42.664;23.346;2023-04-29T04:59:46;94617.41;;;8.73;88.74
6680;BME280;3376;42.664;23.346;2023-04-29T05:02:13;94591.56;;;8.73;84.92
6680;BME280;3376;42.664;23.346;2023-04-29T05:04:39;94604.47;;;8.89;83.59
6680;BME280;3376;42.664;23.346;2023-04-29T05:07:08;94602.19;;;9.02;82.51
6680;BME280;3376;42.664;23.346;2023-04-29T05:09:35;94600.38;;;9.26;79.77
6680;BME280;3376;42.664;23.346;2023-04-29T05:12:01;94599.19;;;9.45;78.08
6680;BME280;3376;42.664;23.346;2023-04-29T05:14:28;94614.84;;;9.51;74.37
6680;BME280;3376;42.664;23.346;2023-04-29T05:16:57;94604.66;;;9.58;74.95
6680;BME280;3376;42.664;23.346;2023-04-29T05:19:24;94592.13;;;9.31;73.08
6680;BME280;3376;42.664;23.346;2023-04-29T05:21:51;94589.22;;;9.34;73.74
6680;BME280;3376;42.664;23.346;2023-04-29T05:24:19;94560.00;;;9.17;71.69
6680;BME280;3376;42.664;23.346;2023-04-29T05:26:46;94581.47;;;9.34;72.50
6680;BME280;3376;42.664;23.346;2023-04-29T05:29:17;94581.72;;;9.47;71.30
6680;BME280;3376;42.664;23.346;2023-04-29T05:31:44;94577.75;;;9.67;71.57
6680;BME280;3376;42.664;23.346;2023-04-29T05:34:11;94585.59;;;9.90;70.43
6680;BME280;3376;42.664;23.346;2023-04-29T05:36:38;94586.28;;;10.06;70.84
6680;BME280;3376;42.664;23.346;2023-04-29T05:39:05;94586.88;;;10.24;67.59
6680;BME280;3376;42.664;23.346;2023-04-29T05:41:33;94589.13;;;10.27;68.02
6680;BME280;3376;42.664;23.346;2023-04-29T05:44:00;94581.13;;;10.37;67.23
6680;BME280;3376;42.664;23.346;2023-04-29T05:46:26;94577.44;;;10.09;66.43
6680;BME280;3376;42.664;23.346;2023-04-29T05:48:53;94572.09;;;10.02;67.14
6680;BME280;3376;42.664;23.346;2023-04-29T05:51:20;94581.75;;;10.16;68.77
6680;BME280;3376;42.664;23.346;2023-04-29T05:53:46;94574.44;;;10.42;67.07
6680;BME280;3376;42.664;23.346;2023-04-29T05:56:13;94544.38;;;10.56;66.25
6680;BME280;3376;42.664;23.346;2023-04-29T05:58:42;94572.69;;;10.80;66.49
6680;BME280;3376;42.664;23.346;2023-04-29T06:01:09;94590.72;;;11.25;66.53
6680;BME280;3376;42.664;23.346;2023-04-29T06:03:35;94583.66;;;11.63;63.91
6680;BME280;3376;42.664;23.346;2023-04-29T06:06:02;94586.81;;;11.88;63.11
6680;BME280;3376;42.664;23.346;2023-04-29T06:08:29;94592.53;;;12.19;62.20
6680;BME280;3376;42.664;23.346;2023-04-29T06:10:56;94590.53;;;12.56;59.47
6680;BME280;3376;42.664;23.346;2023-04-29T06:13:23;94587.97;;;12.84;58.04
6680;BME280;3376;42.664;23.346;2023-04-29T06:15:52;94562.47;;;12.94;56.99
6680;BME280;3376;42.664;23.346;2023-04-29T06:18:18;94571.28;;;13.21;55.56
6680;BME280;3376;42.664;23.346;2023-04-29T06:20:45;94580.81;;;12.86;55.34
6680;BME280;3376;42.664;23.346;2023-04-29T06:23:12;94567.41;;;12.61;56.91
6680;BME280;3376;42.664;23.346;2023-04-29T06:25:39;94582.03;;;12.90;56.88
6680;BME280;3376;42.664;23.346;2023-04-29T06:28:05;94578.81;;;12.88;56.39
6680;BME280;3376;42.664;23.346;2023-04-29T06:30:32;94585.88;;;12.94;56.13
6680;BME280;3376;42.664;23.346;2023-04-29T06:33:00;94579.06;;;13.14;57.33
6680;BME280;3376;42.664;23.346;2023-04-29T06:35:27;94584.47;;;13.47;56.75
6680;BME280;3376;42.664;23.346;2023-04-29T06:37:54;94548.88;;;13.54;54.49
6680;BME280;3376;42.664;23.346;2023-04-29T06:40:21;94585.56;;;14.06;53.05
6680;BME280;3376;42.664;23.346;2023-04-29T06:42:48;94588.06;;;14.27;52.55
6680;BME280;3376;42.664;23.346;2023-04-29T06:45:16;94582.50;;;14.43;52.39
6680;BME280;3376;42.664;23.346;2023-04-29T06:47:43;94552.75;;;14.25;52.57
6680;BME280;3376;42.664;23.346;2023-04-29T06:50:12;94572.88;;;14.50;50.65
6680;BME280;3376;42.664;23.346;2023-04-29T06:52:39;94574.91;;;14.61;50.26
6680;BME280;3376;42.664;23.346;2023-04-29T06:55:06;94570.09;;;14.71;50.37
6680;BME280;3376;42.664;23.346;2023-04-29T06:57:33;94579.94;;;14.76;49.54
6680;BME280;3376;42.664;23.346;2023-04-29T07:00:01;94565.91;;;14.70;49.32
6680;BME280;3376;42.664;23.346;2023-04-29T07:02:28;94573.94;;;14.95;49.23
6680;BME280;3376;42.664;23.346;2023-04-29T07:04:55;94568.31;;;15.04;48.70
6680;BME280;3376;42.664;23.346;2023-04-29T07:07:23;94566.50;;;14.92;49.14
6680;BME280;3376;42.664;23.346;2023-04-29T07:09:50;94563.50;;;14.69;49.35
6680;BME280;3376;42.664;23.346;2023-04-29T07:12:17;94549.19;;;14.26;49.71
6680;BME280;3376;42.664;23.346;2023-04-29T07:14:44;94557.22;;;14.44;49.63
6680;BME280;3376;42.664;23.346;2023-04-29T07:17:11;94561.25;;;14.46;49.30
6680;BME280;3376;42.664;23.346;2023-04-29T07:19:38;94556.47;;;14.63;49.67
6680;BME280;3376;42.664;23.346;2023-04-29T07:22:04;94546.66;;;14.65;50.02
6680;BME280;3376;42.664;23.346;2023-04-29T07:24:33;94564.50;;;14.61;49.76
6680;BME280;3376;42.664;23.346;2023-04-29T07:26:59;94563.31;;;14.70;49.27
6680;BME280;3376;42.664;23.346;2023-04-29T07:29:26;94561.31;;;14.85;49.85
6680;BME280;3376;42.664;23.346;2023-04-29T07:31:53;94561.28;;;15.05;49.27
6680;BME280;3376;42.664;23.346;2023-04-29T07:34:20;94555.09;;;14.99;50.10
6680;BME280;3376;42.664;23.346;2023-04-29T07:36:47;94566.50;;;15.18;50.17
6680;BME280;3376;42.664;23.346;2023-04-29T07:39:14;94564.88;;;15.43;48.60
6680;BME280;3376;42.664;23.346;2023-04-29T07:41:42;94538.31;;;15.66;47.47
6680;BME280;3376;42.664;23.346;2023-04-29T07:44:09;94556.03;;;16.08;46.18
6680;BME280;3376;42.664;23.346;2023-04-29T07:46:36;94561.81;;;16.23;45.54
6680;BME280;3376;42.664;23.346;2023-04-29T07:49:02;94545.13;;;16.24;45.34
6680;BME280;3376;42.664;23.346;2023-04-29T07:51:31;94554.94;;;16.35;44.13
6680;BME280;3376;42.664;23.346;2023-04-29T07:53:58;94541.75;;;16.55;45.19
6680;BME280;3376;42.664;23.346;2023-04-29T07:56:25;94545.44;;;16.72;44.24
6680;BME280;3376;42.664;23.346;2023-04-29T07:58:53;94520.22;;;16.53;44.70
6680;BME280;3376;42.664;23.346;2023-04-29T08:01:20;94539.78;;;16.75;43.00
6680;BME280;3376;42.664;23.346;2023-04-29T08:03:46;94531.97;;;16.99;43.30
6680;BME280;3376;42.664;23.346;2023-04-29T08:06:13;94538.41;;;17.46;40.99
6680;BME280;3376;42.664;23.346;2023-04-29T08:08:40;94535.53;;;17.72;40.50
6680;BME280;3376;42.664;23.346;2023-04-29T08:11:07;94536.19;;;18.15;39.88
6680;BME280;3376;42.664;23.346;2023-04-29T08:13:33;94538.06;;;18.44;38.78
6680;BME280;3376;42.664;23.346;2023-04-29T08:16:02;94524.34;;;18.72;37.90
6680;BME280;3376;42.664;23.346;2023-04-29T08:18:28;94543.78;;;18.94;37.16
6680;BME280;3376;42.664;23.346;2023-04-29T08:20:55;94534.19;;;18.88;38.16
6680;BME280;3376;42.664;23.346;2023-04-29T08:23:22;94490.56;;;18.64;36.95
6680;BME280;3376;42.664;23.346;2023-04-29T08:25:49;94524.97;;;18.97;37.53
6680;BME280;3376;42.664;23.346;2023-04-29T08:28:17;94523.19;;;18.68;37.21
6680;BME280;3376;42.664;23.346;2023-04-29T08:30:44;94520.41;;;18.51;39.52
6680;BME280;3376;42.664;23.346;2023-04-29T08:33:13;94521.72;;;18.72;39.13
6680;BME280;3376;42.664;23.346;2023-04-29T08:35:40;94501.28;;;18.74;38.02
6680;BME280;3376;42.664;23.346;2023-04-29T08:38:08;94524.63;;;19.05;37.03
6680;BME280;3376;42.664;23.346;2023-04-29T08:40:35;94530.72;;;19.52;35.59
6680;BME280;3376;42.664;23.346;2023-04-29T08:43:03;94526.50;;;20.02;35.08
6680;BME280;3376;42.664;23.346;2023-04-29T08:45:30;94510.91;;;19.84;34.33
6680;BME280;3376;42.664;23.346;2023-04-29T08:48:00;94517.47;;;19.58;33.94
6680;BME280;3376;42.664;23.346;2023-04-29T08:50:30;94512.06;;;19.65;34.41
6680;BME280;3376;42.664;23.346;2023-04-29T08:52:57;94503.94;;;19.78;48.49
6680;BME280;3376;42.664;23.346;2023-04-29T08:55:24;94503.06;;;20.12;41.14
6680;BME280;3376;42.664;23.346;2023-04-29T08:57:54;94506.25;;;20.87;36.48
6680;BME280;3376;42.664;23.346;2023-04-29T09:00:23;94516.44;;;21.12;33.68
6680;BME280;3376;42.664;23.346;2023-04-29T09:02:52;94511.94;;;21.45;33.67
6680;BME280;3376;42.664;23.346;2023-04-29T09:05:23;94505.47;;;21.74;33.53
6680;BME280;3376;42.664;23.346;2023-04-29T09:07:52;94498.09;;;21.93;31.72
6680;BME280;3376;42.664;23.346;2023-04-29T09:10:24;94494.53;;;22.04;32.32
6680;BME280;3376;42.664;23.346;2023-04-29T09:12:55;94500.91;;;21.86;33.05
6680;BME280;3376;42.664;23.346;2023-04-29T09:15:35;94498.53;;;21.68;32.25
6680;BME280;3376;42.664;23.346;2023-04-29T09:21:24;94495.81;;;21.63;33.35
6680;BME280;3376;42.664;23.346;2023-04-29T09:23:54;94490.72;;;21.95;30.94
6680;BME280;3376;42.664;23.346;2023-04-29T09:26:22;94471.00;;;21.59;30.19
6680;BME280;3376;42.664;23.346;2023-04-29T09:29:05;94483.75;;;21.46;31.59
6680;BME280;3376;42.664;23.346;2023-04-29T09:31:32;94478.84;;;21.54;33.50
6680;BME280;3376;42.664;23.346;2023-04-29T09:33:59;94484.72;;;21.78;30.53
6680;BME280;3376;42.664;23.346;2023-04-29T09:36:50;94475.22;;;21.98;31.80
6680;BME280;3376;42.664;23.346;2023-04-29T09:39:23;94468.09;;;21.77;30.27
6680;BME280;3376;42.664;23.346;2023-04-29T09:41:58;94468.38;;;21.43;34.18
6680;BME280;3376;42.664;23.346;2023-04-29T09:44:28;94477.53;;;21.57;32.46
6680;BME280;3376;42.664;23.346;2023-04-29T09:46:56;94467.78;;;21.95;34.33
6680;BME280;3376;42.664;23.346;2023-04-29T09:49:26;94452.38;;;22.36;33.22
6680;BME280;3376;42.664;23.346;2023-04-29T09:51:54;94458.41;;;22.84;36.97
6680;BME280;3376;42.664;23.346;2023-04-29T09:54:23;94450.91;;;23.08;32.63
6680;BME280;3376;42.664;23.346;2023-04-29T09:56:53;94445.94;;;23.53;32.82
6680;BME280;3376;42.664;23.346;2023-04-29T09:59:21;94446.63;;;23.85;38.22
6680;BME280;3376;42.664;23.346;2023-04-29T10:01:49;94441.75;;;23.67;31.67
6680;BME280;3376;42.664;23.346;2023-04-29T10:04:17;94439.09;;;23.62;30.10
6680;BME280;3376;42.664;23.346;2023-04-29T10:06:47;94441.97;;;23.14;28.09
6680;BME280;3376;42.664;23.346;2023-04-29T10:09:17;94434.41;;;22.33;32.91
6680;BME280;3376;42.664;23.346;2023-04-29T10:11:47;94425.53;;;22.17;30.88
6680;BME280;3376;42.664;23.346;2023-04-29T10:14:16;94428.53;;;22.26;31.44
6680;BME280;3376;42.664;23.346;2023-04-29T10:16:45;94432.09;;;22.41;33.03
6680;BME280;3376;42.664;23.346;2023-04-29T10:19:17;94426.09;;;22.51;29.87
6680;BME280;3376;42.664;23.346;2023-04-29T10:21:47;94420.34;;;22.00;28.59
6680;BME280;3376;42.664;23.346;2023-04-29T10:24:16;94405.25;;;21.74;28.81
6680;BME280;3376;42.664;23.346;2023-04-29T10:26:47;94422.69;;;21.97;29.91
6680;BME280;3376;42.664;23.346;2023-04-29T10:29:16;94413.13;;;21.69;30.22
6680;BME280;3376;42.664;23.346;2023-04-29T10:31:45;94415.50;;;21.71;30.08
6680;BME280;3376;42.664;23.346;2023-04-29T10:34:16;94422.63;;;21.49;28.73
6680;BME280;3376;42.664;23.346;2023-04-29T10:36:43;94419.09;;;21.43;30.16
6680;BME280;3376;42.664;23.346;2023-04-29T10:39:21;94420.22;;;21.47;28.95
6680;BME280;3376;42.664;23.346;2023-04-29T10:41:51;94406.75;;;21.06;30.90
6680;BME280;3376;42.664;23.346;2023-04-29T10:44:19;94414.41;;;21.07;30.50
6680;BME280;3376;42.664;23.346;2023-04-29T10:46:46;94414.47;;;20.95;32.49
6680;BME280;3376;42.664;23.346;2023-04-29T10:49:13;94425.88;;;20.84;31.13
6680;BME280;3376;42.664;23.346;2023-04-29T10:51:41;94422.00;;;20.70;31.32
6680;BME280;3376;42.664;23.346;2023-04-29T10:54:12;94412.66;;;20.63;32.28
6680;BME280;3376;42.664;23.346;2023-04-29T10:56:46;94400.69;;;20.55;32.08
6680;BME280;3376;42.664;23.346;2023-04-29T10:59:16;94417.75;;;20.53;29.92
6680;BME280;3376;42.664;23.346;2023-04-29T11:01:47;94410.47;;;20.43;30.71
6680;BME280;3376;42.664;23.346;2023-04-29T11:04:15;94286.13;;;19.70;29.39
6680;BME280;3376;42.664;23.346;2023-04-29T11:06:44;94376.56;;;20.14;29.78
6680;BME280;3376;42.664;23.346;2023-04-29T11:09:13;94388.53;;;20.21;30.19
6680;BME280;3376;42.664;23.346;2023-04-29T11:11:42;94402.09;;;20.30;29.62
6680;BME280;3376;42.664;23.346;2023-04-29T11:14:11;94403.75;;;19.91;30.15
6680;BME280;3376;42.664;23.346;2023-04-29T11:16:47;94368.91;;;19.56;32.22
6680;BME280;3376;42.664;23.346;2023-04-29T11:19:15;94384.56;;;19.62;30.22
6680;BME280;3376;42.664;23.346;2023-04-29T11:21:43;94326.75;;;19.11;30.76
6680;BME280;3376;42.664;23.346;2023-04-29T11:24:10;94399.06;;;19.65;30.99
6680;BME280;3376;42.664;23.346;2023-04-29T11:26:39;94398.75;;;19.50;31.28
6680;BME280;3376;42.664;23.346;2023-04-29T11:29:07;94392.75;;;19.38;31.20
6680;BME280;3376;42.664;23.346;2023-04-29T11:31:35;94402.22;;;19.27;32.25
6680;BME280;3376;42.664;23.346;2023-04-29T11:34:04;94395.03;;;19.11;30.58
6680;BME280;3376;42.664;23.346;2023-04-29T11:36:32;94379.66;;;18.92;35.62
6680;BME280;3376;42.664;23.346;2023-04-29T11:39:00;94311.66;;;18.67;38.33
6680;BME280;3376;42.664;23.346;2023-04-29T11:41:28;94397.88;;;19.21;35.15
6680;BME280;3376;42.664;23.346;2023-04-29T11:43:56;94381.31;;;19.32;36.60
6680;BME280;3376;42.664;23.346;2023-04-29T11:46:24;94383.91;;;19.44;33.52
6680;BME280;3376;42.664;23.346;2023-04-29T11:48:53;94385.75;;;19.43;30.82
6680;BME280;3376;42.664;23.346;2023-04-29T11:51:21;94385.47;;;19.56;33.89
6680;BME280;3376;42.664;23.346;2023-04-29T11:53:48;94390.34;;;19.76;32.94
6680;BME280;3376;42.664;23.346;2023-04-29T11:56:15;94380.66;;;19.93;33.51
6680;BME280;3376;42.664;23.346;2023-04-29T11:58:42;94389.06;;;19.78;31.32
6680;BME280;3376;42.664;23.346;2023-04-29T12:01:09;94391.53;;;19.57;32.96
6680;BME280;3376;42.664;23.346;2023-04-29T12:03:36;94386.34;;;19.45;33.79
6680;BME280;3376;42.664;23.346;2023-04-29T12:06:03;94380.03;;;19.46;34.96
6680;BME280;3376;42.664;23.346;2023-04-29T12:08:32;94375.59;;;19.24;33.08
6680;BME280;3376;42.664;23.346;2023-04-29T12:10:59;94382.94;;;19.10;33.21
6680;BME280;3376;42.664;23.346;2023-04-29T12:13:28;94316.69;;;18.57;33.14
6680;BME280;3376;42.664;23.346;2023-04-29T12:15:56;94384.31;;;18.90;34.04
6680;BME280;3376;42.664;23.346;2023-04-29T12:18:23;94381.38;;;18.74;35.07
6680;BME280;3376;42.664;23.346;2023-04-29T12:20:52;94363.22;;;18.50;35.09
6680;BME280;3376;42.664;23.346;2023-04-29T12:23:21;94377.47;;;18.42;34.97
6680;BME280;3376;42.664;23.346;2023-04-29T12:25:50;94374.09;;;18.24;35.79
6680;BME280;3376;42.664;23.346;2023-04-29T12:28:18;94343.31;;;18.08;35.97
6680;BME280;3376;42.664;23.346;2023-04-29T12:30:46;94371.69;;;18.11;36.21
6680;BME280;3376;42.664;23.346;2023-04-29T12:33:18;94323.53;;;17.82;37.86
6680;BME280;3376;42.664;23.346;2023-04-29T12:35:46;94354.13;;;18.11;37.76
6680;BME280;3376;42.664;23.346;2023-04-29T12:38:15;94335.66;;;18.06;38.48
6680;BME280;3376;42.664;23.346;2023-04-29T12:40:43;94337.72;;;18.16;40.65
6680;BME280;3376;42.664;23.346;2023-04-29T12:43:11;94352.16;;;18.48;39.25
6680;BME280;3376;42.664;23.346;2023-04-29T12:45:38;94229.88;;;17.89;38.29
6680;BME280;3376;42.664;23.346;2023-04-29T12:48:05;94354.66;;;18.66;36.96
6680;BME280;3376;42.664;23.346;2023-04-29T12:50:33;94352.38;;;18.69;37.33
6680;BME280;3376;42.664;23.346;2023-04-29T12:53:01;94357.75;;;18.63;36.39
6680;BME280;3376;42.664;23.346;2023-04-29T12:55:31;94353.06;;;18.53;36.98
6680;BME280;3376;42.664;23.346;2023-04-29T12:57:58;94342.31;;;18.32;37.71
6680;BME280;3376;42.664;23.346;2023-04-29T13:00:26;94350.72;;;18.22;38.21
6680;BME280;3376;42.664;23.346;2023-04-29T13:02:53;94346.28;;;18.23;38.21
6680;BME280;3376;42.664;23.346;2023-04-29T13:05:20;94340.56;;;18.03;38.37
6680;BME280;3376;42.664;23.346;2023-04-29T13:07:47;94351.28;;;18.13;39.65
6680;BME280;3376;42.664;23.346;2023-04-29T13:10:14;94354.84;;;18.18;38.03
6680;BME280;3376;42.664;23.346;2023-04-29T13:12:41;94348.69;;;18.24;38.82
6680;BME280;3376;42.664;23.346;2023-04-29T13:15:09;94354.72;;;18.25;38.99
6680;BME280;3376;42.664;23.346;2023-04-29T13:17:37;94346.88;;;18.36;39.25
6680;BME280;3376;42.664;23.346;2023-04-29T13:20:05;94318.00;;;18.13;39.59
6680;BME280;3376;42.664;23.346;2023-04-29T13:22:32;94347.59;;;18.43;41.32